Time;durP1;ratioP1;P1;durP2;ratioP2;P2;SDS_P1;SDS_P2;PMS_P1;PMS_P2;Temp;Humidity;BMP_temperature;BMP_pressure;BME280_temperature;BME280_humidity;BME280_pressure;Samples;Min_cycle;Max_cycle;Signal;HPM_P1;HPM_P2
2023/05/25 00:00:10;;;;;;;20.00;10.70;;;;;;;10.26;100.00;101425.19;8352395;28;20036;-62
2023/05/25 00:04:15;;;;;;;23.40;10.27;;;;;;;10.17;100.00;101433.97;8352595;28;20037;-60
2023/05/25 00:08:16;;;;;;;26.67;11.48;;;;;;;10.25;100.00;101431.56;8350641;28;20491;-60
2023/05/25 00:12:16;;;;;;;25.92;11.20;;;;;;;10.45;100.00;101436.31;8357506;28;20451;-60
2023/05/25 00:16:17;;;;;;;29.88;12.48;;;;;;;10.22;100.00;101428.22;8344406;28;20037;-60
2023/05/25 00:20:17;;;;;;;20.95;12.02;;;;;;;10.24;100.00;101437.94;8358143;28;20122;-60
2023/05/25 00:24:17;;;;;;;26.23;11.80;;;;;;;10.08;100.00;101440.06;8360705;28;20041;-60
2023/05/25 00:28:18;;;;;;;27.48;11.48;;;;;;;9.81;100.00;101439.38;8358688;28;20033;-60
2023/05/25 00:32:18;;;;;;;29.13;13.68;;;;;;;9.69;100.00;101432.19;8359903;28;20033;-60
2023/05/25 00:36:20;;;;;;;20.88;12.93;;;;;;;9.87;100.00;101429.00;8359785;28;20120;-59
2023/05/25 00:40:21;;;;;;;27.98;12.77;;;;;;;9.85;100.00;101433.66;8360730;28;20066;-59
2023/05/25 00:44:22;;;;;;;25.55;13.02;;;;;;;10.23;100.00;101430.81;8358972;28;20079;-61
2023/05/25 00:48:24;;;;;;;24.25;12.02;;;;;;;10.11;100.00;101437.13;8359784;28;20056;-59
2023/05/25 00:52:26;;;;;;;27.15;12.05;;;;;;;10.12;100.00;101438.00;8358384;28;20280;-59
2023/05/25 00:56:31;;;;;;;21.20;11.27;;;;;;;9.86;100.00;101426.41;8359097;28;20033;-60
2023/05/25 01:00:35;;;;;;;25.00;11.23;;;;;;;9.51;100.00;101425.44;8352605;28;20036;-60
2023/05/25 01:04:39;;;;;;;27.05;12.13;;;;;;;9.55;100.00;101425.09;8371134;28;20041;-60
2023/05/25 01:08:46;;;;;;;30.38;13.18;;;;;;;10.00;100.00;101434.34;8358506;28;20045;-60
2023/05/25 01:12:49;;;;;;;22.02;10.68;;;;;;;9.64;100.00;101431.69;8359243;28;20040;-62
2023/05/25 01:16:51;;;;;;;26.17;11.13;;;;;;;9.53;100.00;101428.88;8358229;28;20098;-63
2023/05/25 01:20:58;;;;;;;24.67;11.50;;;;;;;9.46;100.00;101439.25;8358773;28;20075;-63
2023/05/25 01:25:05;;;;;;;24.60;12.93;;;;;;;9.46;100.00;101438.41;8358428;28;20036;-63
2023/05/25 01:29:06;;;;;;;24.05;11.98;;;;;;;9.31;100.00;101431.44;8358189;28;20115;-62
2023/05/25 01:33:09;;;;;;;24.00;13.68;;;;;;;9.50;100.00;101434.50;8357764;28;20035;-62
2023/05/25 01:37:12;;;;;;;25.67;12.05;;;;;;;9.58;100.00;101426.72;8358586;28;20099;-62
2023/05/25 01:41:12;;;;;;;26.70;11.65;;;;;;;9.31;100.00;101428.72;8357780;28;20462;-62
2023/05/25 01:45:14;;;;;;;27.05;11.13;;;;;;;9.18;100.00;101433.28;8357605;28;20120;-64
2023/05/25 01:49:27;;;;;;;25.05;12.30;;;;;;;9.56;100.00;101425.97;8358013;28;20271;-62
2023/05/25 01:53:32;;;;;;;25.67;11.77;;;;;;;9.43;100.00;101427.84;8357519;28;20567;-62
2023/05/25 01:57:36;;;;;;;27.25;12.05;;;;;;;9.04;100.00;101436.09;8357697;28;20514;-59
2023/05/25 02:01:37;;;;;;;21.23;11.27;;;;;;;8.99;100.00;101438.22;8356004;28;20041;-59
2023/05/25 02:05:40;;;;;;;30.75;13.00;;;;;;;8.93;100.00;101433.25;8356897;28;20037;-60
2023/05/25 02:09:41;;;;;;;28.73;12.98;;;;;;;9.26;100.00;101429.06;8356959;28;20029;-59
2023/05/25 02:13:41;;;;;;;20.95;11.90;;;;;;;9.15;100.00;101437.03;8355661;28;20155;-59
2023/05/25 02:17:43;;;;;;;25.75;13.35;;;;;;;8.91;100.00;101424.44;8356867;28;20048;-59
2023/05/25 02:21:43;;;;;;;37.97;14.73;;;;;;;9.12;100.00;101428.31;8356875;28;20037;-59
2023/05/25 02:25:44;;;;;;;29.15;14.32;;;;;;;9.27;100.00;101430.75;8356209;28;20067;-59
2023/05/25 02:29:45;;;;;;;30.73;13.27;;;;;;;9.39;100.00;101434.41;8356578;28;20159;-59
2023/05/25 02:33:45;;;;;;;28.52;12.57;;;;;;;8.91;100.00;101424.44;8355919;28;20125;-59
2023/05/25 02:37:46;;;;;;;35.58;15.05;;;;;;;8.90;100.00;101428.97;8356783;28;20479;-59
2023/05/25 02:41:47;;;;;;;27.27;13.50;;;;;;;8.95;100.00;101426.81;8356863;28;20139;-59
2023/05/25 02:45:47;;;;;;;27.50;12.82;;;;;;;8.95;100.00;101424.13;8355590;28;20060;-59
2023/05/25 02:49:48;;;;;;;30.63;12.95;;;;;;;8.83;100.00;101432.19;8356575;28;20441;-59
2023/05/25 02:53:48;;;;;;;25.85;11.65;;;;;;;8.90;100.00;101433.47;8356008;28;20048;-61
2023/05/25 02:57:49;;;;;;;26.38;11.40;;;;;;;8.80;100.00;101437.78;8356655;28;20032;-60
2023/05/25 03:02:05;;;;;;;27.98;13.13;;;;;;;8.70;100.00;101442.09;8354388;28;20037;-60
2023/05/25 03:06:06;;;;;;;31.27;13.32;;;;;;;8.76;100.00;101441.69;8355462;28;20033;-61
2023/05/25 03:10:08;;;;;;;27.10;12.73;;;;;;;8.57;100.00;101441.25;8356340;28;20047;-60
2023/05/25 03:14:09;;;;;;;24.48;12.18;;;;;;;8.34;100.00;101452.72;8355094;28;20162;-60
2023/05/25 03:18:11;;;;;;;30.83;12.35;;;;;;;8.46;100.00;101454.56;8355071;28;20041;-61
2023/05/25 03:22:12;;;;;;;23.10;12.20;;;;;;;8.63;100.00;101451.59;8355042;28;20389;-60
2023/05/25 03:26:13;;;;;;;19.05;12.25;;;;;;;8.60;100.00;101454.50;8355720;28;20492;-61
2023/05/25 03:30:15;;;;;;;23.63;11.48;;;;;;;8.53;100.00;101474.72;8356070;28;20043;-60
2023/05/25 03:34:16;;;;;;;22.73;11.18;;;;;;;8.41;100.00;101464.78;8354816;28;20044;-60
2023/05/25 03:38:17;;;;;;;19.08;10.57;;;;;;;8.37;100.00;101465.97;8355389;28;20250;-61
2023/05/25 03:42:19;;;;;;;32.97;13.05;;;;;;;8.69;100.00;101467.34;8355226;28;20127;-60
2023/05/25 03:46:19;;;;;;;22.38;12.02;;;;;;;8.53;100.00;101472.91;8359951;28;20044;-60
2023/05/25 03:50:20;;;;;;;24.95;12.18;;;;;;;8.70;100.00;101471.75;8362010;28;20521;-61
2023/05/25 03:54:20;;;;;;;28.20;12.25;;;;;;;8.71;100.00;101476.19;8361828;28;20466;-60
2023/05/25 03:58:22;;;;;;;29.13;13.82;;;;;;;8.70;100.00;101487.94;8361251;28;20064;-61
2023/05/25 04:02:22;;;;;;;39.08;12.90;;;;;;;8.71;100.00;101492.34;8351235;28;20127;-60
2023/05/25 04:06:24;;;;;;;24.40;12.52;;;;;;;8.89;100.00;101491.09;8336260;28;20041;-60
2023/05/25 04:10:24;;;;;;;24.92;12.35;;;;;;;8.89;100.00;101501.88;8356082;28;20045;-61
2023/05/25 04:14:25;;;;;;;23.55;12.02;;;;;;;9.20;100.00;101506.84;8338469;28;20029;-60
2023/05/25 04:18:26;;;;;;;22.15;11.95;;;;;;;9.11;100.00;101513.78;8328891;28;20120;-61
2023/05/25 04:22:27;;;;;;;32.95;13.80;;;;;;;9.21;100.00;101525.63;8344702;28;20042;-61
2023/05/25 04:26:28;;;;;;;32.78;13.30;;;;;;;9.51;100.00;101523.47;8326773;28;20430;-61
2023/05/25 04:30:30;;;;;;;28.10;13.13;;;;;;;9.65;100.00;101530.59;8359748;28;20496;-60
2023/05/25 04:34:41;;;;;;;24.23;11.48;;;;;;;9.85;100.00;101528.16;8347269;28;20079;-60
2023/05/25 04:38:53;;;;;;;30.13;13.35;;;;;;;10.19;100.00;101532.03;8329842;28;20579;-61
2023/05/25 04:42:54;;;;;;;26.67;12.40;;;;;;;10.43;100.00;101540.13;8292031;28;20077;-63
2023/05/25 04:46:55;;;;;;;22.45;11.80;;;;;;;10.55;100.00;101540.06;8293984;28;20053;-63
2023/05/25 04:51:03;;;;;;;26.63;11.02;;;;;;;10.77;98.76;101529.34;8356166;28;20061;-63
2023/05/25 04:55:06;;;;;;;25.35;10.93;;;;;;;10.73;100.00;101530.56;8358775;28;20116;-62
2023/05/25 04:59:10;;;;;;;23.77;12.17;;;;;;;11.07;99.71;101526.13;8358337;28;20048;-62
2023/05/25 05:03:10;;;;;;;30.58;13.43;;;;;;;11.53;98.99;101527.78;8358115;28;20268;-62
2023/05/25 05:07:11;;;;;;;28.17;12.68;;;;;;;11.77;96.74;101538.53;8348837;28;20036;-62
2023/05/25 05:11:11;;;;;;;32.80;14.85;;;;;;;11.66;97.91;101536.72;8341008;28;20495;-62
2023/05/25 05:15:12;;;;;;;34.67;13.02;;;;;;;12.10;97.07;101534.97;8350021;28;20753;-62
2023/05/25 05:19:15;;;;;;;48.33;14.07;;;;;;;12.29;94.51;101529.75;8355344;28;20041;-62
2023/05/25 05:23:16;;;;;;;48.03;14.77;;;;;;;12.80;93.86;101538.94;8354869;28;20578;-63
2023/05/25 05:27:17;;;;;;;45.67;13.20;;;;;;;12.89;92.91;101538.16;8349845;28;20039;-63
2023/05/25 05:31:26;;;;;;;35.00;13.40;;;;;;;13.15;92.39;101543.09;8351630;28;20041;-62
2023/05/25 05:35:26;;;;;;;34.63;13.60;;;;;;;13.24;93.40;101552.34;8355157;28;20044;-62
2023/05/25 05:39:36;;;;;;;39.97;12.82;;;;;;;13.44;90.64;101549.59;8357842;28;20131;-62
2023/05/25 05:43:38;;;;;;;28.00;11.48;;;;;;;13.96;88.59;101559.44;8347267;28;20223;-62
2023/05/25 05:47:39;;;;;;;32.58;12.40;;;;;;;14.05;89.04;101564.06;8349733;28;20120;-63
2023/05/25 05:51:40;;;;;;;30.73;12.52;;;;;;;13.99;88.80;101571.94;8357001;28;20491;-60
2023/05/25 05:55:41;;;;;;;34.45;13.05;;;;;;;14.34;87.64;101573.22;8354915;28;20442;-59
2023/05/25 05:59:41;;;;;;;33.35;13.18;;;;;;;14.49;87.46;101577.25;8355289;28;20033;-59
2023/05/25 06:03:43;;;;;;;34.05;12.70;;;;;;;14.89;88.16;101582.63;8352892;28;20418;-60
2023/05/25 06:07:43;;;;;;;26.90;12.63;;;;;;;14.96;86.22;101575.59;8354774;28;20063;-60
2023/05/25 06:11:44;;;;;;;33.55;12.23;;;;;;;15.03;85.06;101571.28;8355478;28;20128;-60
2023/05/25 06:15:45;;;;;;;26.52;12.10;;;;;;;15.22;84.05;101587.66;8352911;28;20119;-60
2023/05/25 06:19:51;;;;;;;34.17;12.98;;;;;;;15.49;82.64;101585.91;8351226;28;20119;-60
2023/05/25 06:23:52;;;;;;;26.23;11.77;;;;;;;15.79;82.28;101586.72;8354812;28;20045;-60
2023/05/25 06:27:52;;;;;;;36.33;12.43;;;;;;;15.61;82.79;101589.31;8354203;28;20076;-61
2023/05/25 06:31:53;;;;;;;30.55;11.88;;;;;;;16.04;80.93;101586.06;8354699;28;20041;-60
2023/05/25 06:35:57;;;;;;;35.05;12.70;;;;;;;15.89;79.63;101587.53;8355040;28;20133;-61
2023/05/25 06:39:57;;;;;;;27.63;12.30;;;;;;;16.33;80.13;101597.69;8354379;28;20245;-61
2023/05/25 06:43:58;;;;;;;28.23;11.18;;;;;;;16.53;78.97;101604.81;8354462;28;20060;-61
2023/05/25 06:48:13;;;;;;;25.67;10.38;;;;;;;16.65;76.88;101600.88;8350703;28;20037;-61
2023/05/25 06:52:15;;;;;;;27.33;10.50;;;;;;;16.54;77.12;101601.06;8341001;28;20116;-61
2023/05/25 06:56:15;;;;;;;24.92;10.45;;;;;;;16.68;77.55;101614.22;8350492;28;20041;-61
2023/05/25 07:00:16;;;;;;;37.28;12.88;;;;;;;16.77;75.95;101618.75;8353820;28;20041;-61
2023/05/25 07:04:17;;;;;;;35.38;11.77;;;;;;;16.76;76.02;101619.75;8351385;28;20047;-64
2023/05/25 07:08:17;;;;;;;25.33;11.85;;;;;;;16.81;75.41;101625.63;8351803;28;20037;-63
2023/05/25 07:12:17;;;;;;;37.80;13.27;;;;;;;16.86;75.68;101620.53;8353431;28;20411;-64
2023/05/25 07:16:18;;;;;;;31.27;11.82;;;;;;;17.16;76.94;101620.19;8352081;28;20480;-63
2023/05/25 07:20:20;;;;;;;28.67;10.63;;;;;;;17.28;73.93;101625.25;8358654;28;20033;-64
2023/05/25 07:24:21;;;;;;;22.85;8.90;;;;;;;17.44;73.65;101624.56;8348066;28;20057;-61
2023/05/25 07:28:21;;;;;;;29.13;11.48;;;;;;;17.64;73.92;101626.13;8361269;28;20104;-61
2023/05/25 07:32:22;;;;;;;34.55;10.40;;;;;;;17.83;73.51;101625.91;8359345;28;20049;-60
2023/05/25 07:36:23;;;;;;;26.33;9.93;;;;;;;17.85;72.49;101621.16;8361209;28;20448;-60
2023/05/25 07:40:24;;;;;;;29.48;10.65;;;;;;;17.69;72.91;101623.78;8361913;28;20044;-60
2023/05/25 07:44:24;;;;;;;27.17;9.48;;;;;;;18.04;69.47;101617.31;8361232;28;20090;-60
2023/05/25 07:48:25;;;;;;;26.52;9.93;;;;;;;18.34;68.82;101625.88;8361489;28;20121;-61
2023/05/25 07:52:25;;;;;;;25.05;9.63;;;;;;;18.31;69.52;101615.25;8361770;28;20045;-61
2023/05/25 07:56:27;;;;;;;23.90;10.18;;;;;;;18.43;68.88;101624.06;8361139;28;20404;-60
2023/05/25 08:00:28;;;;;;;24.80;9.38;;;;;;;18.47;70.30;101626.31;8361161;28;20049;-65
2023/05/25 08:04:30;;;;;;;29.00;10.73;;;;;;;18.41;68.70;101613.28;8360902;28;20049;-65
2023/05/25 08:08:30;;;;;;;31.08;10.27;;;;;;;18.48;70.00;101614.31;8360840;28;20518;-65
2023/05/25 08:12:31;;;;;;;21.98;10.07;;;;;;;18.82;67.55;101615.13;8360764;28;20403;-65
2023/05/25 08:16:32;;;;;;;26.48;9.43;;;;;;;19.09;65.76;101612.13;8360672;28;20061;-65
2023/05/25 08:20:32;;;;;;;27.08;9.95;;;;;;;19.13;66.21;101608.00;8360208;28;20070;-65
2023/05/25 08:24:33;;;;;;;30.52;9.13;;;;;;;19.07;65.19;101614.19;8359868;28;20040;-65
2023/05/25 08:28:33;;;;;;;29.67;9.75;;;;;;;18.59;66.27;101619.53;8360249;28;20033;-65
2023/05/25 08:32:34;;;;;;;32.83;9.50;;;;;;;18.49;65.61;101618.81;8359300;28;20345;-65
2023/05/25 08:36:34;;;;;;;23.58;10.15;;;;;;;18.48;68.20;101617.06;8359756;28;20039;-65
2023/05/25 08:40:40;;;;;;;30.38;10.25;;;;;;;18.26;68.75;101617.63;8359599;28;20071;-65
2023/05/25 08:44:41;;;;;;;26.17;11.27;;;;;;;18.12;69.40;101625.59;8353585;28;20525;-65
2023/05/25 08:48:44;;;;;;;30.15;10.02;;;;;;;18.79;66.26;101609.97;8360151;28;20534;-65
2023/05/25 08:52:46;;;;;;;22.48;11.65;;;;;;;19.16;65.31;101621.38;8359549;28;20309;-65
2023/05/25 08:56:51;;;;;;;35.28;16.58;;;;;;;18.78;66.79;101619.25;8359040;28;20041;-65
2023/05/25 09:00:57;;;;;;;26.23;12.60;;;;;;;18.82;65.37;101614.28;8358990;28;20094;-65
2023/05/25 09:05:00;;;;;;;28.60;14.00;;;;;;;19.05;65.84;101621.72;8358443;28;20128;-65
2023/05/25 09:09:03;;;;;;;25.95;13.25;;;;;;;19.77;64.60;101618.19;8359176;28;20037;-65
2023/05/25 09:13:04;;;;;;;23.80;12.68;;;;;;;19.69;62.49;101620.06;8358122;28;20056;-65
2023/05/25 09:17:05;;;;;;;23.08;9.20;;;;;;;20.24;61.66;101607.28;8358583;28;20041;-65
2023/05/25 09:21:05;;;;;;;20.15;8.70;;;;;;;20.02;62.58;101616.25;8357891;28;20036;-63
2023/05/25 09:25:07;;;;;;;19.83;9.97;;;;;;;20.22;61.90;101609.38;8361984;28;20052;-63
2023/05/25 09:29:07;;;;;;;24.20;10.15;;;;;;;19.88;62.36;101627.94;8358109;28;20279;-63
2023/05/25 09:33:10;;;;;;;22.00;9.60;;;;;;;19.42;62.78;101624.88;8355551;28;20094;-61
2023/05/25 09:37:12;;;;;;;20.98;10.00;;;;;;;20.40;61.80;101621.00;8364730;28;20037;-63
2023/05/25 09:41:15;;;;;;;21.35;10.63;;;;;;;20.83;60.47;101618.53;8356736;28;20037;-64
2023/05/25 09:45:15;;;;;;;17.80;9.90;;;;;;;20.22;61.15;101618.44;8356496;28;20048;-64
2023/05/25 09:49:16;;;;;;;20.42;10.07;;;;;;;20.49;62.09;101626.25;8357691;28;20124;-64
2023/05/25 09:53:16;;;;;;;18.42;9.20;;;;;;;21.03;59.40;101629.97;8356328;28;20033;-65
2023/05/25 09:57:19;;;;;;;21.48;9.60;;;;;;;20.29;60.54;101629.59;8357268;28;20052;-65
2023/05/25 10:01:20;;;;;;;19.02;8.93;;;;;;;21.81;58.90;101620.47;8357123;28;20036;-65
2023/05/25 10:05:21;;;;;;;16.77;8.48;;;;;;;21.15;59.13;101618.38;8356764;28;20037;-63
2023/05/25 10:09:24;;;;;;;15.20;8.30;;;;;;;21.07;59.07;101626.69;8357185;28;20037;-63
2023/05/25 10:13:27;;;;;;;22.83;9.57;;;;;;;22.13;58.44;101638.53;8356010;28;20087;-63
2023/05/25 10:17:30;;;;;;;19.23;8.60;;;;;;;21.41;59.13;101637.28;8356360;28;21545;-63
2023/05/25 10:21:32;;;;;;;22.50;8.70;;;;;;;22.70;56.53;101623.97;8356213;28;20036;-63
2023/05/25 10:25:39;;;;;;;15.32;8.25;;;;;;;23.49;55.26;101630.41;8356456;28;20754;-63
2023/05/25 10:29:39;;;;;;;15.93;8.55;;;;;;;23.54;55.52;101622.38;8355906;28;20393;-63
2023/05/25 10:33:40;;;;;;;19.15;8.55;;;;;;;23.56;54.77;101631.31;8355303;28;20067;-63
2023/05/25 10:37:41;;;;;;;18.77;10.40;;;;;;;24.53;52.41;101625.72;8356325;28;20037;-61
2023/05/25 10:41:42;;;;;;;13.93;8.93;;;;;;;25.20;51.34;101629.44;8356073;28;20259;-63
2023/05/25 10:45:43;;;;;;;17.50;9.05;;;;;;;23.36;53.55;101636.63;8355042;28;20033;-61
2023/05/25 10:49:54;;;;;;;14.25;8.98;;;;;;;22.47;55.48;101627.81;8356048;28;20070;-63
2023/05/25 10:54:00;;;;;;;22.77;9.02;;;;;;;22.28;55.75;101628.38;8354643;28;20044;-61
2023/05/25 10:58:11;;;;;;;14.93;7.93;;;;;;;22.09;55.97;101635.31;8355458;28;20399;-61
2023/05/25 11:02:14;;;;;;;15.70;7.15;;;;;;;23.65;52.89;101621.84;8351177;28;20412;-61
2023/05/25 11:06:17;;;;;;;12.60;7.10;;;;;;;24.42;51.33;101631.81;8355365;28;20099;-61
2023/05/25 11:10:53;;;;;;;16.42;7.68;;;;;;;24.18;52.17;101626.78;8355539;28;20107;-61
2023/05/25 11:15:09;;;;;;;14.13;6.32;;;;;;;23.91;52.08;101619.31;8354814;28;20056;-61
2023/05/25 11:19:13;;;;;;;14.93;6.78;;;;;;;22.70;54.07;101620.34;8355229;28;20047;-61
2023/05/25 11:23:21;;;;;;;9.88;5.03;;;;;;;22.96;53.93;101623.41;8354744;28;20116;-62
2023/05/25 11:27:23;;;;;;;10.70;5.47;;;;;;;22.31;55.50;101628.00;8355428;28;20040;-62
2023/05/25 11:31:31;;;;;;;7.95;4.65;;;;;;;22.37;54.10;101619.84;8354944;28;20061;-61
2023/05/25 11:35:35;;;;;;;12.63;4.38;;;;;;;22.76;53.52;101612.16;8354412;28;20041;-60
2023/05/25 11:39:36;;;;;;;7.88;3.47;;;;;;;24.47;50.41;101604.41;8355100;28;20063;-60
2023/05/25 11:43:37;;;;;;;8.65;5.20;;;;;;;24.34;50.21;101609.88;8354667;28;20045;-60
2023/05/25 11:47:37;;;;;;;15.23;5.28;;;;;;;23.69;51.67;101603.84;8354568;28;20365;-60
2023/05/25 11:51:38;;;;;;;8.20;5.05;;;;;;;22.54;55.39;101602.09;8354705;28;20041;-61
2023/05/25 11:55:40;;;;;;;12.57;4.95;;;;;;;24.11;51.43;101609.28;8353577;28;20045;-61
2023/05/25 11:59:48;;;;;;;15.48;5.13;;;;;;;24.58;50.47;101606.63;8353555;28;20427;-62
2023/05/25 12:03:52;;;;;;;9.40;4.93;;;;;;;22.81;53.29;101609.66;8351788;28;20041;-62
2023/05/25 12:07:53;;;;;;;8.85;4.75;;;;;;;21.83;54.62;101606.50;8355559;28;20041;-62
2023/05/25 12:11:53;;;;;;;11.82;4.82;;;;;;;20.96;56.71;101613.34;8356812;28;20124;-63
2023/05/25 12:15:56;;;;;;;10.48;4.07;;;;;;;20.93;56.93;101601.81;8358149;28;20120;-63
2023/05/25 12:19:56;;;;;;;7.50;4.05;;;;;;;20.75;58.09;101604.84;8357108;28;20040;-62
2023/05/25 12:23:57;;;;;;;11.65;4.45;;;;;;;20.64;59.08;101607.13;8357645;28;20148;-62
2023/05/25 12:28:14;;;;;;;12.80;4.63;;;;;;;20.89;58.88;101601.31;8357665;28;20422;-63
2023/05/25 12:32:15;;;;;;;12.10;4.68;;;;;;;20.78;59.10;101603.63;8355046;28;20045;-63
2023/05/25 12:36:15;;;;;;;6.45;3.90;;;;;;;20.52;59.96;101614.06;8357944;28;20558;-62
2023/05/25 12:40:18;;;;;;;12.63;5.22;;;;;;;20.27;59.89;101604.19;8356239;28;20037;-62
2023/05/25 12:44:22;;;;;;;9.40;5.18;;;;;;;20.17;59.61;101614.53;8353398;28;20059;-62
2023/05/25 12:48:26;;;;;;;;;;;;;;;20.07;59.82;101616.59;8348810;28;20566;-62
2023/05/25 12:52:34;;;;;;;11.57;4.78;;;;;;;19.90;61.32;101603.91;8336916;28;19920;-62
2023/05/25 12:56:52;;;;;;;7.63;4.63;;;;;;;20.16;59.58;101604.59;8354902;28;20479;-63
2023/05/25 13:00:53;;;;;;;9.20;3.97;;;;;;;19.90;59.82;101609.41;8351201;28;20116;-62
2023/05/25 13:04:53;;;;;;;8.30;4.28;;;;;;;19.85;60.10;101603.59;8355180;28;20041;-60
2023/05/25 13:08:54;;;;;;;10.90;4.28;;;;;;;19.77;60.75;101607.19;8354661;28;20061;-60
2023/05/25 13:12:57;;;;;;;12.95;5.13;;;;;;;19.96;60.85;101600.47;8331444;28;20557;-60
2023/05/25 13:16:57;;;;;;;11.18;4.90;;;;;;;19.92;60.47;101612.84;8347316;28;20064;-60
2023/05/25 13:20:58;;;;;;;13.75;5.45;;;;;;;19.57;60.82;101605.84;8353219;28;20514;-60
2023/05/25 13:24:58;;;;;;;12.23;5.63;;;;;;;19.57;61.90;101594.03;8351948;28;20036;-60
2023/05/25 13:28:59;;;;;;;16.92;6.97;;;;;;;19.52;61.98;101603.59;8346961;28;20087;-60
2023/05/25 13:32:59;;;;;;;14.30;6.43;;;;;;;19.66;64.64;101601.19;8330941;28;20116;-60
2023/05/25 13:36:59;;;;;;;19.70;7.28;;;;;;;19.21;62.27;101599.78;8319253;28;20688;-60
2023/05/25 13:41:01;;;;;;;14.48;7.25;;;;;;;19.28;62.25;101595.38;8321301;28;20053;-60
2023/05/25 13:45:01;;;;;;;12.23;6.88;;;;;;;19.31;62.67;101586.78;8340030;28;20037;-60
2023/05/25 13:49:02;;;;;;;17.42;7.80;;;;;;;19.29;61.63;101586.13;8351838;28;20041;-60
2023/05/25 13:53:03;;;;;;;15.18;7.53;;;;;;;19.13;62.06;101586.06;8353084;28;20044;-60
2023/05/25 13:57:03;;;;;;;13.57;6.80;;;;;;;19.32;63.05;101584.94;8352705;28;20545;-60
2023/05/25 14:01:04;;;;;;;16.50;7.38;;;;;;;19.57;61.94;101583.06;8352148;28;20280;-60
2023/05/25 14:05:05;;;;;;;16.95;8.23;;;;;;;19.33;61.25;101592.97;8353593;28;20044;-60
2023/05/25 14:09:06;;;;;;;15.23;8.23;;;;;;;19.41;61.26;101594.88;8353903;28;20037;-60
2023/05/25 14:13:07;;;;;;;14.82;8.00;;;;;;;19.52;60.60;101583.56;8353571;28;20037;-60
2023/05/25 14:17:07;;;;;;;16.67;7.38;;;;;;;19.59;61.59;101578.22;8354089;28;20040;-60
2023/05/25 14:21:09;;;;;;;19.40;7.53;;;;;;;19.73;62.53;101572.03;8344936;28;20040;-60
2023/05/25 14:25:10;;;;;;;21.25;7.70;;;;;;;19.84;62.24;101572.53;8346332;28;20438;-61
2023/05/25 14:29:10;;;;;;;11.70;6.32;;;;;;;19.84;61.61;101568.91;8345716;28;20037;-61
2023/05/25 14:33:12;;;;;;;15.25;8.23;;;;;;;19.58;62.07;101573.78;8326983;28;20049;-61
2023/05/25 14:37:13;;;;;;;13.95;7.63;;;;;;;19.74;61.97;101568.25;8348864;28;20033;-60
2023/05/25 14:41:13;;;;;;;15.00;7.05;;;;;;;19.83;61.54;101572.72;8353940;28;20037;-60
2023/05/25 14:45:14;;;;;;;19.42;8.80;;;;;;;19.67;61.32;101572.75;8355029;28;20222;-61
2023/05/25 14:49:15;;;;;;;16.27;8.48;;;;;;;19.58;61.55;101580.13;8352229;28;20091;-61
2023/05/25 14:53:16;;;;;;;18.40;8.20;;;;;;;19.49;61.76;101587.50;8349553;28;20419;-60
2023/05/25 14:57:16;;;;;;;15.25;7.22;;;;;;;19.37;62.81;101591.59;8344837;28;20131;-61
2023/05/25 15:01:17;;;;;;;11.88;7.32;;;;;;;19.23;63.04;101586.78;8350193;28;20041;-61
2023/05/25 15:05:17;;;;;;;16.00;7.65;;;;;;;19.57;61.78;101577.56;8348765;28;20107;-61
2023/05/25 15:09:18;;;;;;;16.00;7.13;;;;;;;19.64;62.44;101573.09;8339766;28;20040;-61
2023/05/25 15:13:21;;;;;;;18.02;8.07;;;;;;;19.58;61.87;101571.03;8351298;28;20518;-61
2023/05/25 15:17:21;;;;;;;12.52;6.45;;;;;;;19.68;61.57;101574.44;8349000;28;20595;-61
2023/05/25 15:21:22;;;;;;;14.63;7.05;;;;;;;19.45;61.82;101577.91;8350577;28;20707;-61
2023/05/25 15:25:22;;;;;;;14.98;6.65;;;;;;;19.52;61.21;101571.72;8344427;28;20049;-61
2023/05/25 15:29:23;;;;;;;13.98;6.90;;;;;;;19.45;61.91;101575.16;8346970;28;20063;-61
2023/05/25 15:33:23;;;;;;;14.25;7.13;;;;;;;19.33;61.33;101572.91;8348579;28;20043;-61
2023/05/25 15:37:24;;;;;;;10.80;6.13;;;;;;;19.38;61.13;101567.78;8320239;28;20124;-63
2023/05/25 15:41:24;;;;;;;14.80;7.72;;;;;;;19.19;61.99;101560.72;8341879;28;20407;-64
2023/05/25 15:45:25;;;;;;;22.98;9.45;;;;;;;19.42;61.59;101564.53;8356367;28;20547;-63
2023/05/25 15:49:25;;;;;;;20.02;9.13;;;;;;;19.42;62.01;101563.66;8356644;28;20110;-63
2023/05/25 15:53:25;;;;;;;14.70;6.80;;;;;;;19.54;61.36;101566.94;8356164;28;20071;-63
2023/05/25 15:57:26;;;;;;;13.27;6.30;;;;;;;19.22;61.08;101573.25;8351092;28;20041;-61
2023/05/25 16:01:26;;;;;;;15.85;7.53;;;;;;;19.09;61.60;101561.94;8356086;28;20098;-65
2023/05/25 16:05:28;;;;;;;11.27;5.72;;;;;;;19.20;61.46;101573.41;8356363;28;20071;-65
2023/05/25 16:09:30;;;;;;;10.82;6.15;;;;;;;19.15;62.07;101567.56;8356211;28;20091;-65
2023/05/25 16:13:30;;;;;;;15.30;6.22;;;;;;;19.45;61.63;101553.22;8352792;28;20041;-65
2023/05/25 16:17:31;;;;;;;12.65;5.15;;;;;;;19.46;61.39;101557.66;8356557;28;20115;-65
2023/05/25 16:21:31;;;;;;;10.20;6.10;;;;;;;19.22;61.67;101557.63;8355154;28;20063;-65
2023/05/25 16:25:31;;;;;;;13.25;5.45;;;;;;;19.52;61.99;101555.25;8350070;28;20279;-65
2023/05/25 16:29:32;;;;;;;9.82;5.78;;;;;;;19.49;61.35;101549.09;8355317;28;20045;-65
2023/05/25 16:33:32;;;;;;;13.82;6.32;;;;;;;19.29;62.42;101546.88;8353141;28;20082;-61
2023/05/25 16:37:33;;;;;;;11.07;6.13;;;;;;;19.35;62.65;101552.53;8353163;28;20041;-61
2023/05/25 16:41:33;;;;;;;11.60;5.70;;;;;;;19.29;61.76;101539.50;8337516;28;20636;-61
2023/05/25 16:45:34;;;;;;;12.98;5.72;;;;;;;19.29;62.84;101555.97;8348677;28;20049;-62
2023/05/25 16:49:34;;;;;;;14.10;6.15;;;;;;;19.30;61.66;101543.09;8350605;28;20033;-61
2023/05/25 16:53:35;;;;;;;11.77;6.07;;;;;;;19.14;62.13;101548.53;8351655;28;20090;-62
2023/05/25 16:57:35;;;;;;;15.65;6.70;;;;;;;19.05;61.79;101555.91;8349705;28;20039;-62
2023/05/25 17:01:36;;;;;;;16.52;7.20;;;;;;;19.05;62.22;101555.91;8354347;28;20099;-62
2023/05/25 17:05:36;;;;;;;13.23;7.40;;;;;;;19.12;62.17;101559.69;8352750;28;20532;-62
2023/05/25 17:09:37;;;;;;;13.07;7.47;;;;;;;18.94;62.74;101553.50;8353893;28;20097;-62
2023/05/25 17:13:37;;;;;;;15.80;5.90;;;;;;;19.06;63.58;101546.66;8354393;28;20502;-61
2023/05/25 17:17:38;;;;;;;12.35;5.65;;;;;;;19.00;62.79;101554.72;8344239;28;20044;-62
2023/05/25 17:21:38;;;;;;;11.20;5.30;;;;;;;18.99;63.10;101545.63;8353519;28;20040;-62
2023/05/25 17:25:39;;;;;;;12.43;5.78;;;;;;;19.07;63.17;101540.16;8338114;28;20124;-62
2023/05/25 17:29:40;;;;;;;13.25;5.95;;;;;;;19.00;62.76;101535.53;8338843;28;20451;-62
2023/05/25 17:33:42;;;;;;;9.95;5.32;;;;;;;18.97;63.41;101542.19;8351994;28;20037;-62
2023/05/25 17:37:42;;;;;;;12.27;5.53;;;;;;;19.09;62.99;101550.97;8353918;28;20033;-62
2023/05/25 17:41:44;;;;;;;12.52;5.63;;;;;;;19.08;62.45;101538.25;8353867;28;20060;-62
2023/05/25 17:45:45;;;;;;;11.15;5.35;;;;;;;19.09;62.71;101546.31;8351491;28;20581;-64
2023/05/25 17:49:45;;;;;;;10.07;6.00;;;;;;;19.00;62.66;101546.50;8352800;28;20393;-64
2023/05/25 17:53:46;;;;;;;14.47;5.77;;;;;;;18.95;63.30;101547.00;8349422;28;20037;-64
2023/05/25 17:57:46;;;;;;;14.23;6.20;;;;;;;18.92;63.31;101541.00;8353076;28;20393;-63
2023/05/25 18:01:46;;;;;;;12.75;5.38;;;;;;;18.82;62.97;101543.03;8352910;28;20099;-63
2023/05/25 18:05:47;;;;;;;10.15;5.50;;;;;;;18.82;63.53;101543.88;8350660;28;20106;-63
2023/05/25 18:09:47;;;;;;;15.52;5.53;;;;;;;18.76;62.94;101541.81;8323609;28;20124;-63
2023/05/25 18:13:48;;;;;;;13.40;5.22;;;;;;;18.80;62.98;101543.22;8315767;28;20467;-63
2023/05/25 18:17:48;;;;;;;13.37;5.23;;;;;;;18.76;63.10;101544.56;8348789;28;20111;-63
2023/05/25 18:21:49;;;;;;;10.30;4.80;;;;;;;18.71;63.36;101546.09;8351912;28;20275;-64
2023/05/25 18:25:49;;;;;;;9.80;4.53;;;;;;;18.66;63.53;101543.84;8351085;28;20044;-63